Terminal Aerodrome Forecast
Issued by NWS

Home | Current Version | Previous Version | Text Only | Print | Product List | Glossary On
Versions: 1 2 3 4 5 6 7 8 9 10 11 12 13 14 15 16 17
000
FTUS43 KAPX 222244 AAA
TAFMBL
TAF AMD
KMBL 222244Z 2223/2318 35005KT P6SM FEW050
     FM230600 00000KT 4SM BR BKN050
     FM231000 18004KT 4SM BR BKN025
     FM231300 19004KT P6SM BKN120
     FM231700 28007KT P6SM SCT250=

USA.gov is the U.S. government's official web portal to all federal, state and local government web resources and services.